createdAt,value
2017-07-06T00:00:56.562Z,17.80
2017-07-06T00:03:24.089Z,17.80
2017-07-06T00:05:51.633Z,17.80
2017-07-06T00:08:19.161Z,17.70
2017-07-06T00:10:47.483Z,17.60
2017-07-06T00:13:15.008Z,17.60
2017-07-06T00:15:42.532Z,17.60
2017-07-06T00:18:10.076Z,17.50
2017-07-06T00:20:37.599Z,17.50
2017-07-06T00:23:05.142Z,17.40
2017-07-06T00:25:32.669Z,17.30
2017-07-06T00:28:00.215Z,17.30
2017-07-06T00:30:28.511Z,17.20
2017-07-06T00:32:56.051Z,17.20
2017-07-06T00:35:23.567Z,17.10
2017-07-06T00:37:51.883Z,17.00
2017-07-06T00:40:19.398Z,17.00
2017-07-06T00:42:47.687Z,17.10
2017-07-06T00:45:15.995Z,17.10
2017-07-06T00:47:43.518Z,17.00
2017-07-06T00:50:11.828Z,17.10
2017-07-06T00:52:39.346Z,17.10
2017-07-06T00:55:07.657Z,17.20
2017-07-06T00:57:35.180Z,17.20
2017-07-06T01:00:02.726Z,17.20
2017-07-06T01:02:30.252Z,17.20
2017-07-06T01:04:57.811Z,17.20
2017-07-06T01:07:25.339Z,17.20
2017-07-06T01:09:52.860Z,17.20
2017-07-06T01:12:20.403Z,17.10
2017-07-06T01:14:48.692Z,17.00
2017-07-06T01:17:16.230Z,17.00
2017-07-06T01:19:44.519Z,16.90
2017-07-06T01:22:12.066Z,16.90
2017-07-06T01:24:40.356Z,16.90
2017-07-06T01:27:08.650Z,16.90
2017-07-06T01:29:36.195Z,16.90
2017-07-06T01:32:03.728Z,16.80
2017-07-06T01:34:31.272Z,16.80
2017-07-06T01:36:58.799Z,16.70
2017-07-06T01:39:26.344Z,16.70
2017-07-06T01:41:53.868Z,16.60
2017-07-06T01:44:21.411Z,16.60
2017-07-06T01:46:48.940Z,16.60
2017-07-06T01:49:16.492Z,16.60
2017-07-06T01:51:44.071Z,16.60
2017-07-06T01:54:11.555Z,16.50
2017-07-06T01:56:39.097Z,16.50
2017-07-06T01:59:06.618Z,16.40
2017-07-06T02:01:34.167Z,16.40
2017-07-06T02:04:02.458Z,16.40
2017-07-06T02:06:30.004Z,16.40
2017-07-06T02:08:57.527Z,16.40
2017-07-06T02:11:25.843Z,16.40
2017-07-06T02:13:53.367Z,16.40
2017-07-06T02:16:20.896Z,16.40
2017-07-06T02:18:48.436Z,16.40
2017-07-06T02:21:15.967Z,16.40
2017-07-06T02:23:44.306Z,16.30
2017-07-06T02:26:11.817Z,16.30
2017-07-06T02:28:39.360Z,16.30
2017-07-06T02:31:07.651Z,16.20
2017-07-06T02:33:35.959Z,16.20
2017-07-06T02:36:03.480Z,16.20
2017-07-06T02:38:31.794Z,16.30
2017-07-06T02:41:00.082Z,16.30
2017-07-06T02:43:27.611Z,16.30
2017-07-06T02:45:55.923Z,16.20
2017-07-06T02:48:23.448Z,16.10
2017-07-06T02:50:51.763Z,16.10
2017-07-06T02:53:19.289Z,16.10
2017-07-06T02:55:47.599Z,16.10
2017-07-06T02:58:15.133Z,16.10
2017-07-06T03:00:43.442Z,16.10
2017-07-06T03:03:11.726Z,16.10
2017-07-06T03:05:40.038Z,16.10
2017-07-06T03:08:07.568Z,16.10
2017-07-06T03:10:35.878Z,16.00
2017-07-06T03:13:03.407Z,16.00
2017-07-06T03:15:31.730Z,15.90
2017-07-06T03:17:59.258Z,15.90
2017-07-06T03:20:26.789Z,15.90
2017-07-06T03:22:55.103Z,15.90
2017-07-06T03:25:22.627Z,15.90
2017-07-06T03:27:50.940Z,15.90
2017-07-06T03:30:18.467Z,15.80
2017-07-06T03:32:46.776Z,15.80
2017-07-06T03:35:14.308Z,15.80
2017-07-06T03:37:42.620Z,15.80
2017-07-06T03:40:10.142Z,15.80
2017-07-06T03:42:37.683Z,15.90
2017-07-06T03:45:05.212Z,15.80
2017-07-06T03:47:33.529Z,15.90
2017-07-06T03:50:01.060Z,15.90
2017-07-06T03:52:29.380Z,16.20
2017-07-06T03:54:56.912Z,16.10
2017-07-06T03:57:24.435Z,16.20
2017-07-06T03:59:51.981Z,16.30
2017-07-06T04:02:19.516Z,16.40
2017-07-06T04:04:47.069Z,16.40
2017-07-06T04:07:14.593Z,16.50
2017-07-06T04:09:42.142Z,16.70
2017-07-06T04:12:09.668Z,16.90
2017-07-06T04:14:37.983Z,17.30
2017-07-06T04:17:05.513Z,17.30
2017-07-06T04:19:33.822Z,17.40
2017-07-06T04:22:01.347Z,17.40
2017-07-06T04:24:28.908Z,17.60
2017-07-06T04:26:57.210Z,17.90
2017-07-06T04:29:24.741Z,17.90
2017-07-06T04:31:53.055Z,18.00
2017-07-06T04:34:20.579Z,18.00
2017-07-06T04:36:48.935Z,18.30
2017-07-06T04:39:16.464Z,18.20
2017-07-06T04:41:44.009Z,18.40
2017-07-06T04:44:11.540Z,18.70
2017-07-06T04:46:39.089Z,18.90
2017-07-06T04:49:06.624Z,19.20
2017-07-06T04:51:34.200Z,19.50
2017-07-06T04:54:01.734Z,19.90
2017-07-06T04:56:29.265Z,20.20
2017-07-06T04:58:56.812Z,20.60
2017-07-06T05:01:25.115Z,21.00
2017-07-06T05:03:52.696Z,21.00
2017-07-06T05:06:20.229Z,21.30
2017-07-06T05:08:47.842Z,21.50
2017-07-06T05:11:15.400Z,21.70
2017-07-06T05:13:42.949Z,22.00
2017-07-06T05:16:10.481Z,22.40
2017-07-06T05:18:38.806Z,23.30
2017-07-06T05:21:06.339Z,23.30
2017-07-06T05:23:33.888Z,23.70
2017-07-06T05:26:01.412Z,24.20
2017-07-06T05:28:28.981Z,24.80
2017-07-06T05:30:56.521Z,25.20
2017-07-06T05:33:24.816Z,26.00
2017-07-06T05:35:52.372Z,26.00
2017-07-06T05:38:19.899Z,26.60
2017-07-06T05:40:48.211Z,27.40
2017-07-06T05:43:15.735Z,27.40
2017-07-06T05:45:44.054Z,28.30
2017-07-06T05:48:11.588Z,28.30
2017-07-06T05:50:39.903Z,29.00
2017-07-06T05:53:07.432Z,29.00
2017-07-06T05:55:34.974Z,29.20
2017-07-06T05:58:03.270Z,29.60
2017-07-06T06:00:30.812Z,29.60
2017-07-06T06:02:59.113Z,29.90
2017-07-06T06:05:26.639Z,29.80
2017-07-06T06:07:54.189Z,30.20
2017-07-06T06:10:21.729Z,30.60
2017-07-06T06:12:49.281Z,30.80
2017-07-06T06:15:16.808Z,31.00
2017-07-06T06:17:45.130Z,31.30
2017-07-06T06:20:12.658Z,31.30
2017-07-06T06:22:40.207Z,31.80
2017-07-06T06:25:08.501Z,32.20
2017-07-06T06:27:36.084Z,32.10
2017-07-06T06:30:03.613Z,32.30
2017-07-06T06:32:31.169Z,31.80
2017-07-06T06:34:58.704Z,31.80
2017-07-06T06:37:26.236Z,31.90
2017-07-06T06:39:53.785Z,32.30
2017-07-06T06:42:22.084Z,32.40
2017-07-06T06:44:49.631Z,32.40
2017-07-06T06:47:17.167Z,32.70
2017-07-06T06:49:44.722Z,32.80
2017-07-06T06:52:12.247Z,32.90
2017-07-06T06:54:39.803Z,33.30
2017-07-06T06:57:07.339Z,33.60
2017-07-06T06:59:34.894Z,33.50
2017-07-06T07:02:02.419Z,33.30
2017-07-06T07:04:29.950Z,33.00
2017-07-06T07:06:57.498Z,32.90
2017-07-06T07:09:25.819Z,32.50
2017-07-06T07:11:53.368Z,32.50
2017-07-06T07:14:20.898Z,32.50
2017-07-06T07:16:49.212Z,33.10
2017-07-06T07:19:16.740Z,33.10
2017-07-06T07:21:44.296Z,33.30
2017-07-06T07:24:11.820Z,33.70
2017-07-06T07:26:39.377Z,33.50
2017-07-06T07:29:06.907Z,33.20
2017-07-06T07:31:35.203Z,32.90
2017-07-06T07:34:02.754Z,32.90
2017-07-06T07:36:30.278Z,32.90
2017-07-06T07:38:58.588Z,33.00
2017-07-06T07:41:26.115Z,33.00
2017-07-06T07:43:54.431Z,33.20
2017-07-06T07:46:22.730Z,33.20
2017-07-06T07:48:50.275Z,33.10
2017-07-06T07:51:18.569Z,32.70
2017-07-06T07:53:46.124Z,32.70
2017-07-06T07:56:13.652Z,32.40
2017-07-06T07:58:41.179Z,32.20
2017-07-06T08:01:08.731Z,32.40
2017-07-06T08:03:36.261Z,32.70
2017-07-06T08:06:03.824Z,33.10
2017-07-06T08:08:31.353Z,33.20
2017-07-06T08:10:59.673Z,33.10
2017-07-06T08:13:27.206Z,33.00
2017-07-06T08:15:54.761Z,33.30
2017-07-06T08:18:22.298Z,33.40
2017-07-06T08:20:49.844Z,33.30
2017-07-06T08:23:17.373Z,33.50
2017-07-06T08:25:44.927Z,33.70
2017-07-06T08:28:12.456Z,33.60
2017-07-06T08:30:39.991Z,33.60
2017-07-06T08:33:08.329Z,34.00
2017-07-06T08:35:35.859Z,34.00
2017-07-06T08:38:03.407Z,34.00
2017-07-06T08:40:30.931Z,34.20
2017-07-06T08:42:58.483Z,34.60
2017-07-06T08:45:26.016Z,35.00
2017-07-06T08:47:53.569Z,35.50
2017-07-06T08:50:21.098Z,35.90
2017-07-06T08:52:49.388Z,36.40
2017-07-06T08:55:16.933Z,36.30
2017-07-06T08:57:44.472Z,36.40
2017-07-06T09:00:12.019Z,36.30
2017-07-06T09:02:40.310Z,35.60
2017-07-06T09:05:07.852Z,35.60
2017-07-06T09:07:36.143Z,35.40
2017-07-06T09:10:03.698Z,35.40
2017-07-06T09:12:31.224Z,35.40
2017-07-06T09:14:58.752Z,35.80
2017-07-06T09:17:26.292Z,36.20
2017-07-06T09:19:53.826Z,36.20
2017-07-06T09:22:21.374Z,35.60
2017-07-06T09:24:48.899Z,35.30
2017-07-06T09:27:16.446Z,35.00
2017-07-06T09:29:43.973Z,34.40
2017-07-06T09:32:12.302Z,34.00
2017-07-06T09:34:39.829Z,34.00
2017-07-06T09:37:07.359Z,34.20
2017-07-06T09:39:34.899Z,34.40
2017-07-06T09:42:02.426Z,34.60
2017-07-06T09:44:29.985Z,35.00
2017-07-06T09:46:57.522Z,35.30
2017-07-06T09:49:25.068Z,35.10
2017-07-06T09:51:53.367Z,35.00
2017-07-06T09:54:20.913Z,35.00
2017-07-06T09:56:48.444Z,34.90
2017-07-06T09:59:15.999Z,35.00
2017-07-06T10:01:43.535Z,35.30
2017-07-06T10:04:11.064Z,35.60
2017-07-06T10:06:38.607Z,35.50
2017-07-06T10:09:06.136Z,35.60
2017-07-06T10:11:33.684Z,35.60
2017-07-06T10:14:01.216Z,35.60
2017-07-06T10:16:28.796Z,35.90
2017-07-06T10:18:56.308Z,35.70
2017-07-06T10:21:23.856Z,35.40
2017-07-06T10:23:52.151Z,35.40
2017-07-06T10:26:20.477Z,35.60
2017-07-06T10:28:48.004Z,35.50
2017-07-06T10:31:15.535Z,35.60
2017-07-06T10:33:43.090Z,35.60
2017-07-06T10:36:10.619Z,35.30
2017-07-06T10:38:38.166Z,35.20
2017-07-06T10:41:05.691Z,35.50
2017-07-06T10:43:33.256Z,35.80
2017-07-06T10:46:00.781Z,36.00
2017-07-06T10:48:28.336Z,36.10
2017-07-06T10:50:55.873Z,36.00
2017-07-06T10:53:23.404Z,35.40
2017-07-06T10:55:50.943Z,35.30
2017-07-06T10:58:18.469Z,35.80
2017-07-06T11:00:46.782Z,35.60
2017-07-06T11:03:14.308Z,35.60
2017-07-06T11:05:41.862Z,35.20
2017-07-06T11:08:10.166Z,35.60
2017-07-06T11:10:37.709Z,35.60
2017-07-06T11:13:05.239Z,35.60
2017-07-06T11:15:32.796Z,35.00
2017-07-06T11:18:00.324Z,35.00
2017-07-06T11:20:27.855Z,35.30
2017-07-06T11:22:55.399Z,35.60
2017-07-06T11:25:23.696Z,35.80
2017-07-06T11:27:51.250Z,35.80
2017-07-06T11:30:18.781Z,36.20
2017-07-06T11:32:46.339Z,36.60
2017-07-06T11:35:13.868Z,37.10
2017-07-06T11:37:42.204Z,36.80
2017-07-06T11:40:09.808Z,36.80
2017-07-06T11:45:16.360Z,36.10
2017-07-06T11:47:43.912Z,36.00
2017-07-06T11:50:11.444Z,35.80
2017-07-06T11:52:38.973Z,35.80
2017-07-06T11:55:07.285Z,35.80
2017-07-06T11:57:34.811Z,35.80
2017-07-06T12:00:03.128Z,35.80
2017-07-06T12:02:30.664Z,35.80
2017-07-06T12:04:58.216Z,35.70
2017-07-06T12:07:25.747Z,35.80
2017-07-06T12:09:53.294Z,36.00
2017-07-06T12:12:20.823Z,36.30
2017-07-06T12:14:49.136Z,36.30
2017-07-06T12:17:16.669Z,36.30
2017-07-06T12:19:44.200Z,36.30
2017-07-06T12:22:11.747Z,36.30
2017-07-06T12:24:39.275Z,36.30
2017-07-06T12:27:06.819Z,36.20
2017-07-06T12:29:34.343Z,36.10
2017-07-06T12:32:02.660Z,36.40
2017-07-06T12:34:30.187Z,36.40
2017-07-06T12:36:58.511Z,36.00
2017-07-06T12:39:26.039Z,35.90
2017-07-06T12:41:53.567Z,35.90
2017-07-06T12:44:21.113Z,36.10
2017-07-06T12:46:49.412Z,36.20
2017-07-06T12:49:16.959Z,36.10
2017-07-06T12:51:44.492Z,36.00
2017-07-06T12:54:12.041Z,36.00
2017-07-06T12:56:39.570Z,36.20
2017-07-06T12:59:07.126Z,36.40
2017-07-06T13:01:34.654Z,36.40
2017-07-06T13:04:02.949Z,36.30
2017-07-06T13:06:30.491Z,36.30
2017-07-06T13:08:58.015Z,36.20
2017-07-06T13:11:25.568Z,36.10
2017-07-06T13:13:53.103Z,36.10
2017-07-06T13:16:20.647Z,36.30
2017-07-06T13:18:48.173Z,36.50
2017-07-06T13:21:15.732Z,36.80
2017-07-06T13:23:43.261Z,37.20
2017-07-06T13:26:10.812Z,37.30
2017-07-06T13:28:38.337Z,36.90
2017-07-06T13:31:06.630Z,36.20
2017-07-06T13:33:34.181Z,36.20
2017-07-06T13:36:02.475Z,36.60
2017-07-06T13:38:30.025Z,36.60
2017-07-06T13:40:57.551Z,36.80
2017-07-06T13:43:25.103Z,36.50
2017-07-06T13:45:52.628Z,36.40
2017-07-06T13:48:20.943Z,36.50
2017-07-06T13:50:48.469Z,36.50
2017-07-06T13:53:16.012Z,36.50
2017-07-06T13:55:43.540Z,36.50
2017-07-06T13:58:11.836Z,35.80
2017-07-06T14:00:39.381Z,35.80
2017-07-06T14:03:06.908Z,35.30
2017-07-06T14:05:34.453Z,35.00
2017-07-06T14:08:02.744Z,35.10
2017-07-06T14:10:30.292Z,35.10
2017-07-06T14:12:57.823Z,35.20
2017-07-06T14:15:25.368Z,35.10
2017-07-06T14:17:52.897Z,35.00
2017-07-06T14:20:20.423Z,35.40
2017-07-06T14:22:47.968Z,35.50
2017-07-06T14:25:15.492Z,35.40
2017-07-06T14:27:43.045Z,35.30
2017-07-06T14:30:10.597Z,35.30
2017-07-06T14:32:38.149Z,35.30
2017-07-06T14:35:05.675Z,35.20
2017-07-06T14:37:33.225Z,35.30
2017-07-06T14:40:00.756Z,35.00
2017-07-06T14:42:28.300Z,34.80
2017-07-06T14:44:55.832Z,34.80
2017-07-06T14:47:23.356Z,34.50
2017-07-06T14:49:50.903Z,34.20
2017-07-06T14:52:18.435Z,33.90
2017-07-06T14:54:45.992Z,33.70
2017-07-06T14:57:13.532Z,33.90
2017-07-06T14:59:41.841Z,34.50
2017-07-06T15:02:09.366Z,34.50
2017-07-06T15:04:36.912Z,34.80
2017-07-06T15:07:04.439Z,34.90
2017-07-06T15:09:32.001Z,35.00
2017-07-06T15:12:00.291Z,35.00
2017-07-06T15:14:27.817Z,35.00
2017-07-06T15:16:55.366Z,34.80
2017-07-06T15:19:22.891Z,34.70
2017-07-06T15:21:50.445Z,34.60
2017-07-06T15:24:17.974Z,34.30
2017-07-06T15:26:45.523Z,34.10
2017-07-06T15:29:13.056Z,33.80
2017-07-06T15:31:40.599Z,33.50
2017-07-06T15:34:08.136Z,33.20
2017-07-06T15:36:35.694Z,33.10
2017-07-06T15:39:03.229Z,33.00
2017-07-06T15:41:30.759Z,32.80
2017-07-06T15:43:58.304Z,32.60
2017-07-06T15:46:25.830Z,32.40
2017-07-06T15:48:53.378Z,32.30
2017-07-06T15:51:20.905Z,32.30
2017-07-06T15:53:48.459Z,32.40
2017-07-06T15:56:15.993Z,32.40
2017-07-06T15:58:44.308Z,32.20
2017-07-06T16:01:11.836Z,32.20
2017-07-06T16:03:39.383Z,32.20
2017-07-06T16:06:06.907Z,32.10
2017-07-06T16:08:34.453Z,31.90
2017-07-06T16:11:01.980Z,31.80
2017-07-06T16:13:29.529Z,31.70
2017-07-06T16:15:57.059Z,31.50
2017-07-06T16:18:24.618Z,31.20
2017-07-06T16:20:52.143Z,31.00
2017-07-06T16:23:20.439Z,30.60
2017-07-06T16:25:48.754Z,30.40
2017-07-06T16:28:16.283Z,30.30
2017-07-06T16:30:44.600Z,30.10
2017-07-06T16:33:12.137Z,30.10
2017-07-06T16:35:39.684Z,30.00
2017-07-06T16:38:07.210Z,29.70
2017-07-06T16:40:34.754Z,29.60
2017-07-06T16:43:03.042Z,29.40
2017-07-06T16:45:30.591Z,29.40
2017-07-06T16:47:58.115Z,29.40
2017-07-06T16:50:25.670Z,29.40
2017-07-06T16:52:53.199Z,29.40
2017-07-06T16:55:20.719Z,29.20
2017-07-06T16:57:48.265Z,28.80
2017-07-06T17:00:15.787Z,28.60
2017-07-06T17:02:43.330Z,28.40
2017-07-06T17:05:10.854Z,28.10
2017-07-06T17:07:38.401Z,27.80
2017-07-06T17:10:05.923Z,27.70
2017-07-06T17:12:33.471Z,27.70
2017-07-06T17:15:00.998Z,27.80
2017-07-06T17:17:28.547Z,27.80
2017-07-06T17:19:56.071Z,27.80
2017-07-06T17:22:23.595Z,27.70
2017-07-06T17:24:51.137Z,27.50
2017-07-06T17:27:18.663Z,27.40
2017-07-06T17:29:46.211Z,27.30
2017-07-06T17:32:14.499Z,27.10
2017-07-06T17:34:42.046Z,27.10
2017-07-06T17:37:10.395Z,27.00
2017-07-06T17:39:38.712Z,26.50
2017-07-06T17:42:06.234Z,26.40
2017-07-06T17:44:33.759Z,26.00
2017-07-06T17:47:01.306Z,25.10
2017-07-06T17:49:28.835Z,24.40
2017-07-06T17:51:56.380Z,23.90
2017-07-06T17:54:23.906Z,23.70
2017-07-06T17:56:52.219Z,23.40
2017-07-06T17:59:19.744Z,23.40
2017-07-06T18:01:47.291Z,23.30
2017-07-06T18:04:14.818Z,23.20
2017-07-06T18:06:42.371Z,23.10
2017-07-06T18:09:09.896Z,23.10
2017-07-06T18:11:37.453Z,23.10
2017-07-06T18:14:04.980Z,23.00
2017-07-06T18:16:32.508Z,23.00
2017-07-06T18:19:00.054Z,22.80
2017-07-06T18:21:27.575Z,22.50
2017-07-06T18:23:55.884Z,21.50
2017-07-06T18:26:23.407Z,21.40
2017-07-06T18:28:50.950Z,21.30
2017-07-06T18:31:18.475Z,21.20
2017-07-06T18:33:46.032Z,21.30
2017-07-06T18:36:13.561Z,21.30
2017-07-06T18:38:41.852Z,21.20
2017-07-06T18:41:09.396Z,21.20
2017-07-06T18:43:36.929Z,21.20
2017-07-06T18:46:04.480Z,21.30
2017-07-06T18:48:32.778Z,21.70
2017-07-06T18:51:01.091Z,21.90
2017-07-06T18:53:28.617Z,21.90
2017-07-06T18:55:56.164Z,22.10
2017-07-06T18:58:24.469Z,22.50
2017-07-06T19:00:51.991Z,22.50
2017-07-06T19:03:19.535Z,22.50
2017-07-06T19:05:47.063Z,22.60
2017-07-06T19:08:14.608Z,22.70
2017-07-06T19:10:42.133Z,22.70
2017-07-06T19:13:09.681Z,22.50
2017-07-06T19:15:37.972Z,22.10
2017-07-06T19:18:05.520Z,22.00
2017-07-06T19:20:33.047Z,22.00
2017-07-06T19:23:00.610Z,22.00
2017-07-06T19:25:28.136Z,21.90
2017-07-06T19:27:55.667Z,21.70
2017-07-06T19:30:23.218Z,21.50
2017-07-06T19:32:50.749Z,21.40
2017-07-06T19:35:18.302Z,21.20
2017-07-06T19:37:45.832Z,21.00
2017-07-06T19:40:13.378Z,20.80
2017-07-06T19:42:40.903Z,20.80
2017-07-06T19:45:08.451Z,20.80
2017-07-06T19:47:35.976Z,20.80
2017-07-06T19:50:03.533Z,20.80
2017-07-06T19:52:31.070Z,20.80
2017-07-06T19:54:58.609Z,20.70
2017-07-06T19:57:26.925Z,20.70
2017-07-06T19:59:54.452Z,20.70
2017-07-06T20:02:22.763Z,20.60
2017-07-06T20:04:50.293Z,20.60
2017-07-06T20:07:17.861Z,20.50
2017-07-06T20:09:45.393Z,20.50
2017-07-06T20:12:12.945Z,20.50
2017-07-06T20:14:40.488Z,20.50
2017-07-06T20:17:08.807Z,20.60
2017-07-06T20:19:36.327Z,20.60
2017-07-06T20:22:03.852Z,20.70
2017-07-06T20:24:31.399Z,20.70
2017-07-06T20:26:58.928Z,20.70
2017-07-06T20:29:26.475Z,20.80
2017-07-06T20:31:54.006Z,20.50
2017-07-06T20:34:21.554Z,20.30
2017-07-06T20:36:49.076Z,20.30
2017-07-06T20:39:16.636Z,20.30
2017-07-06T20:41:44.164Z,20.10
2017-07-06T20:44:11.686Z,19.90
2017-07-06T20:46:39.995Z,19.80
2017-07-06T20:49:07.526Z,19.80
2017-07-06T20:51:35.075Z,19.70
2017-07-06T20:54:02.602Z,19.60
2017-07-06T20:56:30.157Z,19.40
2017-07-06T20:58:57.681Z,19.20
2017-07-06T21:01:25.228Z,19.00
2017-07-06T21:03:52.750Z,18.90
2017-07-06T21:06:20.370Z,19.00
2017-07-06T21:08:48.664Z,18.80
2017-07-06T21:11:16.247Z,18.70
2017-07-06T21:13:43.860Z,18.90
2017-07-06T21:16:11.441Z,19.00
2017-07-06T21:18:39.815Z,19.10
2017-07-06T21:21:08.171Z,19.20
2017-07-06T21:23:36.635Z,19.30
2017-07-06T21:26:04.156Z,19.30
2017-07-06T21:28:32.780Z,19.30
2017-07-06T21:31:00.305Z,19.40
2017-07-06T21:33:27.828Z,19.30
2017-07-06T21:35:56.138Z,19.10
2017-07-06T21:38:23.662Z,19.10
2017-07-06T21:40:51.212Z,19.10
2017-07-06T21:43:18.736Z,19.10
2017-07-06T21:45:46.282Z,19.00
2017-07-06T21:48:14.570Z,19.20
2017-07-06T21:50:42.111Z,19.10
2017-07-06T21:53:10.408Z,19.20
2017-07-06T21:55:37.964Z,19.20
2017-07-06T21:58:05.487Z,19.20
2017-07-06T22:00:33.012Z,19.20
2017-07-06T22:03:00.554Z,19.10
2017-07-06T22:05:28.080Z,19.00
2017-07-06T22:07:55.638Z,19.00
2017-07-06T22:10:23.927Z,19.00
2017-07-06T22:12:51.477Z,19.00
2017-07-06T22:15:18.999Z,19.00
2017-07-06T22:17:46.547Z,18.90
2017-07-06T22:20:14.840Z,18.80
2017-07-06T22:22:42.363Z,18.80
2017-07-06T22:25:10.680Z,18.60
2017-07-06T22:27:38.207Z,18.60
2017-07-06T22:30:05.753Z,18.70
2017-07-06T22:32:33.280Z,18.80
2017-07-06T22:35:00.827Z,18.90
2017-07-06T22:37:28.352Z,19.00
2017-07-06T22:39:55.897Z,19.10
2017-07-06T22:42:23.423Z,19.10
2017-07-06T22:44:50.971Z,19.10
2017-07-06T22:50:02.495Z,18.90
2017-07-06T22:52:30.016Z,18.90
2017-07-06T22:54:57.539Z,18.90
2017-07-06T22:57:25.088Z,19.00
2017-07-06T22:59:52.612Z,19.00
2017-07-06T23:02:20.156Z,18.90
2017-07-06T23:04:47.692Z,18.90
2017-07-06T23:07:15.236Z,18.90
2017-07-06T23:09:42.766Z,18.90
2017-07-06T23:12:11.078Z,19.00
2017-07-06T23:14:39.363Z,19.10
2017-07-06T23:17:06.909Z,19.00
2017-07-06T23:19:34.435Z,19.10
2017-07-06T23:22:01.983Z,19.10
2017-07-06T23:24:29.510Z,19.10
2017-07-06T23:26:57.034Z,19.00
2017-07-06T23:29:24.580Z,19.00
2017-07-06T23:31:52.878Z,18.70
2017-07-06T23:34:21.188Z,18.70
2017-07-06T23:36:48.720Z,18.70
2017-07-06T23:39:16.260Z,18.60
2017-07-06T23:41:43.785Z,18.60
2017-07-06T23:44:11.340Z,18.60
2017-07-06T23:46:38.863Z,18.60
2017-07-06T23:49:06.415Z,18.60
2017-07-06T23:51:33.940Z,18.60
2017-07-06T23:54:01.469Z,18.60
2017-07-06T23:56:29.042Z,18.60
2017-07-06T23:58:56.568Z,18.50
